createdAt,value
2023-01-05T00:01:57.015Z,98691.89
2023-01-05T00:04:25.501Z,98687.36
2023-01-05T00:06:54.078Z,98682.29
2023-01-05T00:09:22.620Z,98676.95
2023-01-05T00:12:09.914Z,98680.82
2023-01-05T00:14:57.102Z,98669.52
2023-01-05T00:17:44.132Z,98665.10
2023-01-05T00:20:36.685Z,98659.86
2023-01-05T00:23:06.158Z,98657.27
2023-01-05T00:25:39.639Z,98653.12
2023-01-05T00:28:08.864Z,98648.45
2023-01-05T00:30:41.150Z,98644.58
2023-01-05T00:33:10.990Z,98637.41
2023-01-05T00:35:40.025Z,98631.55
2023-01-05T00:38:09.812Z,98633.29
2023-01-05T00:40:40.329Z,98630.02
2023-01-05T00:43:08.790Z,98632.29
2023-01-05T00:45:37.342Z,98630.52
2023-01-05T00:48:06.190Z,98627.67
2023-01-05T00:50:34.711Z,98631.05
2023-01-05T00:53:03.282Z,98634.61
2023-01-05T00:55:31.784Z,98629.13
2023-01-05T00:58:00.504Z,98633.02
2023-01-05T01:00:29.062Z,98636.21
2023-01-05T01:02:57.748Z,98628.86
2023-01-05T01:05:26.209Z,98631.76
2023-01-05T01:07:54.860Z,98627.79
2023-01-05T01:10:25.522Z,98624.08
2023-01-05T01:12:54.728Z,98617.73
2023-01-05T01:15:23.209Z,98613.16
2023-01-05T01:17:51.728Z,98601.34
2023-01-05T01:20:20.983Z,98595.31
2023-01-05T01:22:49.628Z,98583.80
2023-01-05T01:25:17.912Z,98579.81
2023-01-05T01:27:46.215Z,98573.67
2023-01-05T01:30:14.618Z,98577.54
2023-01-05T01:32:42.998Z,98570.50
2023-01-05T01:35:11.252Z,98566.98
2023-01-05T01:37:40.429Z,98560.15
2023-01-05T01:40:09.770Z,98550.43
2023-01-05T01:42:38.143Z,98545.58
2023-01-05T01:45:25.470Z,98531.80
2023-01-05T01:47:59.386Z,98523.09
2023-01-05T01:50:38.971Z,98524.88
2023-01-05T01:53:30.143Z,98523.02
2023-01-05T01:56:02.851Z,98506.05
2023-01-05T01:58:32.601Z,98505.18
2023-01-05T02:01:01.360Z,98501.94
2023-01-05T02:03:31.334Z,98500.39
2023-01-05T02:06:01.151Z,98500.55
2023-01-05T02:08:32.406Z,98494.38
2023-01-05T02:11:25.387Z,98495.84
2023-01-05T02:14:16.794Z,98491.34
2023-01-05T02:17:05.890Z,98496.95
2023-01-05T02:19:52.736Z,98485.24
2023-01-05T02:22:39.837Z,98474.83
2023-01-05T02:25:35.078Z,98464.74
2023-01-05T02:28:36.730Z,98459.88
2023-01-05T02:31:10.659Z,98456.45
2023-01-05T02:34:19.298Z,98457.98
2023-01-05T02:37:20.597Z,98449.29
2023-01-05T02:40:02.909Z,98448.62
2023-01-05T02:42:39.177Z,98449.70
2023-01-05T02:45:09.194Z,98456.09
2023-01-05T02:47:44.715Z,98450.85
2023-01-05T02:50:23.328Z,98439.86
2023-01-05T02:53:09.799Z,98438.15
2023-01-05T02:55:40.977Z,98437.66
2023-01-05T02:58:43.512Z,98434.11
2023-01-05T03:01:20.400Z,98423.83
2023-01-05T03:04:09.391Z,98427.27
2023-01-05T03:06:49.556Z,98432.81
2023-01-05T03:09:20.226Z,98427.30
2023-01-05T03:12:30.750Z,98419.81
2023-01-05T03:15:06.470Z,98420.48
2023-01-05T03:17:46.545Z,98413.40
2023-01-05T03:20:18.416Z,98407.09
2023-01-05T03:23:06.926Z,98417.17
2023-01-05T03:25:57.826Z,98416.11
2023-01-05T03:28:49.301Z,98406.11
2023-01-05T03:31:46.851Z,98396.67
2023-01-05T03:34:44.775Z,98391.71
2023-01-05T03:37:28.057Z,98392.01
2023-01-05T03:39:56.577Z,98389.54
2023-01-05T03:42:25.756Z,98384.89
2023-01-05T03:44:54.682Z,98376.34
2023-01-05T03:47:26.524Z,98372.80
2023-01-05T03:49:55.203Z,98375.60
2023-01-05T03:52:23.645Z,98370.84
2023-01-05T03:54:52.071Z,98360.41
2023-01-05T03:57:20.427Z,98355.86
2023-01-05T03:59:48.841Z,98352.88
2023-01-05T04:02:17.940Z,98348.41
2023-01-05T04:04:46.881Z,98353.74
2023-01-05T04:07:15.217Z,98358.09
2023-01-05T04:09:43.762Z,98347.23
2023-01-05T04:12:12.083Z,98351.81
2023-01-05T04:14:41.965Z,98351.49
2023-01-05T04:17:10.383Z,98351.99
2023-01-05T04:19:39.488Z,98358.38
2023-01-05T04:22:07.811Z,98351.70
2023-01-05T04:24:36.060Z,98352.44
2023-01-05T04:27:04.719Z,98352.50
2023-01-05T04:29:33.188Z,98349.33
2023-01-05T04:32:02.009Z,98338.54
2023-01-05T04:34:30.662Z,98339.86
2023-01-05T04:36:59.573Z,98341.13
2023-01-05T04:39:27.933Z,98332.23
2023-01-05T04:41:57.292Z,98327.67
2023-01-05T04:44:26.162Z,98334.66
2023-01-05T04:46:55.621Z,98337.91
2023-01-05T04:49:24.437Z,98337.56
2023-01-05T04:51:53.011Z,98333.63
2023-01-05T04:54:22.630Z,98340.20
2023-01-05T04:56:51.019Z,98332.62
2023-01-05T04:59:20.394Z,98333.55
2023-01-05T05:01:50.214Z,98334.59
2023-01-05T05:04:18.746Z,98335.20
2023-01-05T05:06:50.024Z,98334.14
2023-01-05T05:09:20.034Z,98333.89
2023-01-05T05:11:49.977Z,98331.95
2023-01-05T05:14:20.791Z,98337.63
2023-01-05T05:16:49.362Z,98337.41
2023-01-05T05:19:17.634Z,98335.67
2023-01-05T05:21:46.091Z,98339.66
2023-01-05T05:24:14.749Z,98339.94
2023-01-05T05:26:44.389Z,98348.04
2023-01-05T05:29:12.691Z,98349.86
2023-01-05T05:31:41.054Z,98348.44
2023-01-05T05:34:09.448Z,98347.63
2023-01-05T05:36:38.163Z,98351.71
2023-01-05T05:39:06.580Z,98351.83
2023-01-05T05:41:34.890Z,98350.29
2023-01-05T05:44:03.320Z,98346.36
2023-01-05T05:46:31.762Z,98350.32
2023-01-05T05:49:00.442Z,98353.20
2023-01-05T05:51:28.865Z,98358.58
2023-01-05T05:53:57.187Z,98361.87
2023-01-05T05:56:25.596Z,98355.21
2023-01-05T05:59:01.049Z,98355.52
2023-01-05T06:01:30.330Z,98354.73
2023-01-05T06:03:59.570Z,98350.40
2023-01-05T06:06:31.447Z,98345.90
2023-01-05T06:09:02.095Z,98353.91
2023-01-05T06:11:30.938Z,98362.95
2023-01-05T06:14:07.789Z,98354.77
2023-01-05T06:16:37.213Z,98352.95
2023-01-05T06:19:09.794Z,98352.14
2023-01-05T06:21:39.170Z,98349.15
2023-01-05T06:24:07.828Z,98350.14
2023-01-05T06:26:41.511Z,98352.72
2023-01-05T06:29:16.149Z,98347.02
2023-01-05T06:31:45.002Z,98354.75
2023-01-05T06:34:16.998Z,98347.45
2023-01-05T06:36:45.907Z,98343.84
2023-01-05T06:39:16.642Z,98341.19
2023-01-05T06:41:44.975Z,98340.19
2023-01-05T06:44:13.328Z,98343.60
2023-01-05T06:46:41.719Z,98346.26
2023-01-05T06:49:12.291Z,98343.50
2023-01-05T06:51:41.097Z,98337.95
2023-01-05T06:54:09.625Z,98331.89
2023-01-05T06:56:38.132Z,98333.97
2023-01-05T06:59:06.434Z,98336.71
2023-01-05T07:01:34.926Z,98330.08
2023-01-05T07:04:03.354Z,98328.71
2023-01-05T07:06:31.746Z,98335.84
2023-01-05T07:09:00.133Z,98345.01
2023-01-05T07:11:28.903Z,98373.24
2023-01-05T07:13:57.544Z,98428.69
2023-01-05T07:16:26.149Z,98440.64
2023-01-05T07:18:54.582Z,98445.37
2023-01-05T07:21:22.959Z,98441.10
2023-01-05T07:23:52.010Z,98437.17
2023-01-05T07:26:20.532Z,98441.29
2023-01-05T07:28:49.214Z,98456.96
2023-01-05T07:31:17.884Z,98440.34
2023-01-05T07:33:46.817Z,98425.95
2023-01-05T07:36:15.243Z,98430.48
2023-01-05T07:38:43.767Z,98428.54
2023-01-05T07:41:12.438Z,98446.67
2023-01-05T07:43:44.133Z,98475.06
2023-01-05T07:46:12.718Z,98481.70
2023-01-05T07:48:44.429Z,98482.53
2023-01-05T07:51:12.846Z,98490.80
2023-01-05T07:53:44.403Z,98499.02
2023-01-05T07:56:13.569Z,98487.02
2023-01-05T07:58:43.014Z,98479.94
2023-01-05T08:01:13.723Z,98490.38
2023-01-05T08:03:44.944Z,98496.48
2023-01-05T08:06:17.358Z,98488.27
2023-01-05T08:08:46.927Z,98467.70
2023-01-05T08:11:17.683Z,98470.52
2023-01-05T08:14:02.619Z,98478.90
2023-01-05T08:16:32.723Z,98476.73
2023-01-05T08:19:05.245Z,98453.78
2023-01-05T08:21:36.432Z,98448.65
2023-01-05T08:24:06.577Z,98448.13
2023-01-05T08:26:35.101Z,98448.08
2023-01-05T08:29:03.776Z,98448.70
2023-01-05T08:31:37.477Z,98449.96
2023-01-05T08:34:06.737Z,98453.45
2023-01-05T08:36:35.224Z,98451.46
2023-01-05T08:39:04.316Z,98452.68
2023-01-05T08:41:37.793Z,98453.45
2023-01-05T08:44:11.028Z,98457.27
2023-01-05T08:46:39.806Z,98462.10
2023-01-05T08:49:20.016Z,98461.98
2023-01-05T08:51:51.507Z,98462.18
2023-01-05T08:54:20.023Z,98465.98
2023-01-05T08:56:50.708Z,98469.14
2023-01-05T08:59:22.236Z,98469.34
2023-01-05T09:01:50.937Z,98465.72
2023-01-05T09:04:19.595Z,98461.27
2023-01-05T09:06:48.174Z,98455.20
2023-01-05T09:09:16.582Z,98453.39
2023-01-05T09:11:52.418Z,98456.77
2023-01-05T09:14:20.960Z,98455.27
2023-01-05T09:17:08.288Z,98456.87
2023-01-05T09:19:42.366Z,98454.95
2023-01-05T09:22:10.965Z,98455.02
2023-01-05T09:24:39.500Z,98458.80
2023-01-05T09:27:08.153Z,98463.10
2023-01-05T09:29:36.652Z,98464.23
2023-01-05T09:32:10.791Z,98468.88
2023-01-05T09:34:45.859Z,98472.89
2023-01-05T09:37:17.144Z,98473.63
2023-01-05T09:39:46.703Z,98478.70
2023-01-05T09:42:27.652Z,98474.09
2023-01-05T09:45:03.080Z,98475.76
2023-01-05T09:47:38.832Z,98476.48
2023-01-05T09:50:18.833Z,98478.21
2023-01-05T09:53:00.443Z,98471.83
2023-01-05T09:55:32.011Z,98464.43
2023-01-05T09:58:06.764Z,98472.67
2023-01-05T10:00:38.841Z,98472.31
2023-01-05T10:03:36.470Z,98461.06
2023-01-05T10:06:04.043Z,98454.31
2023-01-05T10:08:42.613Z,98453.40
2023-01-05T10:12:05.132Z,98446.16
2023-01-05T10:14:41.899Z,98444.12
2023-01-05T10:17:40.555Z,98443.02
2023-01-05T10:20:14.400Z,98440.46
2023-01-05T10:23:00.605Z,98444.61
2023-01-05T10:25:53.472Z,98442.95
2023-01-05T10:29:15.934Z,98446.98
2023-01-05T10:31:59.959Z,98447.98
2023-01-05T10:34:44.336Z,98446.42
2023-01-05T10:37:30.859Z,98448.75
2023-01-05T10:40:14.033Z,98452.63
2023-01-05T10:42:59.480Z,98448.36
2023-01-05T10:45:31.696Z,98446.04
2023-01-05T10:48:00.503Z,98441.30
2023-01-05T10:50:32.617Z,98432.41
2023-01-05T10:53:26.810Z,98436.79
2023-01-05T10:56:10.570Z,98430.73
2023-01-05T10:58:45.009Z,98424.85
2023-01-05T11:01:22.671Z,98428.05
2023-01-05T11:04:26.637Z,98423.99
2023-01-05T11:06:46.610Z,98423.97
2023-01-05T11:09:22.302Z,98425.46
2023-01-05T11:11:55.677Z,98425.70
2023-01-05T11:14:24.835Z,98426.61
2023-01-05T11:17:03.471Z,98425.41
2023-01-05T11:19:39.202Z,98422.84
2023-01-05T11:22:36.860Z,98422.27
2023-01-05T11:25:30.477Z,98418.56
2023-01-05T11:28:18.726Z,98418.06
2023-01-05T11:31:04.646Z,98411.72
2023-01-05T11:33:39.833Z,98411.13
2023-01-05T11:36:08.400Z,98413.11
2023-01-05T11:38:37.171Z,98409.29
2023-01-05T11:41:13.765Z,98409.09
2023-01-05T11:43:47.912Z,98400.01
2023-01-05T11:46:17.810Z,98394.73
2023-01-05T11:48:55.701Z,98394.36
2023-01-05T11:51:36.005Z,98390.33
2023-01-05T11:54:33.945Z,98391.04
2023-01-05T11:57:23.276Z,98388.66
2023-01-05T11:59:51.918Z,98384.52
2023-01-05T12:02:55.156Z,98382.84
2023-01-05T12:05:30.812Z,98381.59
2023-01-05T12:08:13.243Z,98381.98
2023-01-05T12:11:02.855Z,98377.63
2023-01-05T12:14:20.387Z,98377.27
2023-01-05T12:17:04.450Z,98373.71
2023-01-05T12:19:59.818Z,98370.83
2023-01-05T12:23:13.621Z,98371.05
2023-01-05T12:26:10.127Z,98369.61
2023-01-05T12:29:30.146Z,98371.05
2023-01-05T12:35:17.528Z,98372.94
2023-01-05T12:37:48.951Z,98372.65
2023-01-05T12:40:24.000Z,98368.82
2023-01-05T12:43:01.332Z,98366.80
2023-01-05T12:45:57.096Z,98375.18
2023-01-05T12:48:36.492Z,98379.39
2023-01-05T12:51:04.923Z,98376.11
2023-01-05T12:53:36.328Z,98380.66
2023-01-05T12:56:21.912Z,98382.55
2023-01-05T12:59:02.136Z,98385.76
2023-01-05T13:01:35.126Z,98387.81
2023-01-05T13:04:12.004Z,98383.93
2023-01-05T13:06:45.259Z,98387.23
2023-01-05T13:09:20.510Z,98387.02
2023-01-05T13:11:58.565Z,98386.63
2023-01-05T13:14:34.941Z,98389.16
2023-01-05T13:17:26.619Z,98395.50
2023-01-05T13:31:44.678Z,98426.94
2023-01-05T13:34:16.066Z,98425.57
2023-01-05T13:36:59.929Z,98423.09
2023-01-05T13:40:04.060Z,98423.00
2023-01-05T13:46:11.233Z,98417.05
2023-01-05T13:49:17.768Z,98414.19
2023-01-05T13:52:03.339Z,98416.11
2023-01-05T13:55:01.095Z,98435.14
2023-01-05T13:57:43.940Z,98465.66
2023-01-05T14:00:33.578Z,98472.53
2023-01-05T14:03:14.129Z,98485.92
2023-01-05T14:05:51.038Z,98491.36
2023-01-05T14:08:43.199Z,98500.94
2023-01-05T14:11:24.106Z,98508.55
2023-01-05T14:14:04.837Z,98505.43
2023-01-05T14:16:37.633Z,98513.94
2023-01-05T14:19:26.088Z,98529.66
2023-01-05T14:21:56.602Z,98529.46
2023-01-05T14:27:23.275Z,98543.98
2023-01-05T14:32:30.698Z,98553.65
2023-01-05T14:35:19.640Z,98560.83
2023-01-05T14:37:57.259Z,98541.85
2023-01-05T14:40:33.885Z,98520.84
2023-01-05T14:43:06.983Z,98535.77
2023-01-05T14:45:39.446Z,98532.84
2023-01-05T14:48:29.651Z,98521.55
2023-01-05T14:51:43.427Z,98508.88
2023-01-05T14:54:11.776Z,98510.48
2023-01-05T14:56:40.198Z,98514.04
2023-01-05T14:59:20.126Z,98509.85
2023-01-05T15:01:54.525Z,98517.73
2023-01-05T15:04:33.610Z,98516.38
2023-01-05T15:07:32.919Z,98520.30
2023-01-05T15:10:29.070Z,98523.71
2023-01-05T15:13:09.482Z,98521.26
2023-01-05T15:15:52.967Z,98514.39
2023-01-05T15:18:36.452Z,98515.10
2023-01-05T15:21:29.827Z,98511.29
2023-01-05T15:24:25.879Z,98504.27
2023-01-05T15:27:07.163Z,98514.06
2023-01-05T15:29:53.659Z,98514.23
2023-01-05T15:32:27.073Z,98511.73
2023-01-05T15:34:57.381Z,98517.52
2023-01-05T15:37:36.347Z,98513.35
2023-01-05T15:40:25.601Z,98504.28
2023-01-05T15:43:02.091Z,98501.67
2023-01-05T15:45:34.150Z,98502.81
2023-01-05T15:48:09.383Z,98507.75
2023-01-05T15:50:47.188Z,98509.63
2023-01-05T15:53:38.460Z,98513.33
2023-01-05T15:56:26.026Z,98511.45
2023-01-05T15:58:54.772Z,98513.76
2023-01-05T16:01:23.274Z,98520.56
2023-01-05T16:03:51.714Z,98520.81
2023-01-05T16:06:26.400Z,98531.04
2023-01-05T16:08:59.147Z,98531.42
2023-01-05T16:11:33.726Z,98532.39
2023-01-05T16:14:10.709Z,98540.77
2023-01-05T16:16:53.740Z,98539.98
2023-01-05T16:19:29.131Z,98537.86
2023-01-05T16:22:03.588Z,98540.58
2023-01-05T16:24:54.862Z,98538.65
2023-01-05T16:27:23.954Z,98530.11
2023-01-05T16:29:52.466Z,98528.63
2023-01-05T16:32:38.886Z,98531.64
2023-01-05T16:35:34.156Z,98531.52
2023-01-05T16:38:26.764Z,98529.05
2023-01-05T16:41:23.855Z,98530.70
2023-01-05T16:44:02.120Z,98533.34
2023-01-05T16:47:09.908Z,98534.08
2023-01-05T16:49:49.907Z,98535.50
2023-01-05T16:52:29.007Z,98541.01
2023-01-05T16:55:32.835Z,98545.05
2023-01-05T16:58:03.026Z,98568.48
2023-01-05T17:00:33.421Z,98575.34
2023-01-05T17:03:04.515Z,98580.31
2023-01-05T17:05:35.019Z,98587.05
2023-01-05T17:08:07.804Z,98598.30
2023-01-05T17:10:36.258Z,98610.03
2023-01-05T17:13:13.408Z,98603.24
2023-01-05T17:15:45.475Z,98616.55
2023-01-05T17:18:28.843Z,98611.77
2023-01-05T17:20:59.324Z,98614.71
2023-01-05T17:23:31.373Z,98615.58
2023-01-05T17:26:06.384Z,98621.42
2023-01-05T17:28:35.087Z,98622.65
2023-01-05T17:31:03.838Z,98622.19
2023-01-05T17:33:32.368Z,98624.35
2023-01-05T17:36:01.700Z,98628.59
2023-01-05T17:38:30.027Z,98630.54
2023-01-05T17:40:58.725Z,98634.64
2023-01-05T17:43:27.252Z,98641.55
2023-01-05T17:45:56.674Z,98641.02
2023-01-05T17:48:25.117Z,98643.95
2023-01-05T17:50:54.415Z,98651.08
2023-01-05T17:53:23.117Z,98654.50
2023-01-05T17:55:52.643Z,98655.75
2023-01-05T17:58:20.994Z,98667.52
2023-01-05T18:00:49.876Z,98673.73
2023-01-05T18:03:22.419Z,98675.13
2023-01-05T18:05:53.577Z,98674.88
2023-01-05T18:08:22.127Z,98677.52
2023-01-05T18:10:50.612Z,98688.95
2023-01-05T18:13:22.462Z,98687.36
2023-01-05T18:15:53.292Z,98692.02
2023-01-05T18:18:22.417Z,98694.44
2023-01-05T18:20:52.185Z,98701.05
2023-01-05T18:23:21.167Z,98706.58
2023-01-05T18:25:49.617Z,98707.99
2023-01-05T18:28:18.178Z,98716.10
2023-01-05T18:30:46.729Z,98723.29
2023-01-05T18:33:15.127Z,98727.95
2023-01-05T18:35:44.021Z,98726.57
2023-01-05T18:38:12.597Z,98731.73
2023-01-05T18:40:41.076Z,98732.38
2023-01-05T18:43:09.398Z,98733.77
2023-01-05T18:45:39.905Z,98739.33
2023-01-05T18:48:08.707Z,98745.54
2023-01-05T18:50:43.114Z,98753.91
2023-01-05T18:53:13.132Z,98755.27
2023-01-05T18:55:42.238Z,98758.23
2023-01-05T18:58:11.895Z,98756.47
2023-01-05T19:00:44.823Z,98758.08
2023-01-05T19:03:13.853Z,98760.45
2023-01-05T19:05:44.215Z,98764.92
2023-01-05T19:08:14.211Z,98767.86
2023-01-05T19:10:42.619Z,98774.86
2023-01-05T19:13:10.960Z,98779.50
2023-01-05T19:15:39.342Z,98772.55
2023-01-05T19:18:07.889Z,98782.56
2023-01-05T19:20:36.620Z,98784.63
2023-01-05T19:23:05.026Z,98790.89
2023-01-05T19:25:33.627Z,98795.84
2023-01-05T19:28:02.570Z,98810.83
2023-01-05T19:30:31.337Z,98814.07
2023-01-05T19:33:01.193Z,98814.00
2023-01-05T19:35:31.270Z,98815.64
2023-01-05T19:38:02.649Z,98814.96
2023-01-05T19:40:31.087Z,98820.09
2023-01-05T19:42:59.521Z,98823.57
2023-01-05T19:45:27.900Z,98824.77
2023-01-05T19:47:56.441Z,98831.40
2023-01-05T19:50:24.821Z,98837.70
2023-01-05T19:52:53.693Z,98840.10
2023-01-05T19:55:24.303Z,98849.69
2023-01-05T19:57:52.749Z,98856.52
2023-01-05T20:00:21.227Z,98860.73
2023-01-05T20:02:49.603Z,98868.49
2023-01-05T20:05:18.612Z,98875.41
2023-01-05T20:07:47.001Z,98883.61
2023-01-05T20:10:16.945Z,98882.50
2023-01-05T20:12:45.492Z,98887.40
2023-01-05T20:15:13.966Z,98890.17
2023-01-05T20:17:46.759Z,98902.84
2023-01-05T20:20:15.175Z,98911.35
2023-01-05T20:22:43.547Z,98917.30
2023-01-05T20:25:13.059Z,98922.23
2023-01-05T20:27:41.648Z,98921.13
2023-01-05T20:30:10.837Z,98920.45
2023-01-05T20:32:39.277Z,98924.48
2023-01-05T20:35:08.033Z,98920.45
2023-01-05T20:37:36.396Z,98920.80
2023-01-05T20:40:10.102Z,98928.66
2023-01-05T20:42:41.583Z,98936.11
2023-01-05T20:45:10.005Z,98937.27
2023-01-05T20:47:47.424Z,98942.96
2023-01-05T20:50:16.830Z,98951.34
2023-01-05T20:52:45.704Z,98961.10
2023-01-05T20:55:17.821Z,98964.88
2023-01-05T20:57:47.346Z,98963.79
2023-01-05T21:00:17.047Z,98968.84
2023-01-05T21:02:48.563Z,98971.66
2023-01-05T21:05:17.885Z,98986.27
2023-01-05T21:07:46.921Z,98990.98
2023-01-05T21:10:15.423Z,98999.38
2023-01-05T21:12:45.134Z,99008.80
2023-01-05T21:15:14.778Z,99009.98
2023-01-05T21:17:45.427Z,99014.83
2023-01-05T21:20:13.934Z,99022.98
2023-01-05T21:22:42.309Z,99032.31
2023-01-05T21:25:11.872Z,99035.41
2023-01-05T21:27:44.262Z,99040.00
2023-01-05T21:30:13.847Z,99051.20
2023-01-05T21:32:45.505Z,99056.02
2023-01-05T21:35:20.914Z,99057.30
2023-01-05T21:37:49.581Z,99064.88
2023-01-05T21:40:18.009Z,99074.15
2023-01-05T21:42:50.167Z,99086.59
2023-01-05T21:45:21.191Z,99094.86
2023-01-05T21:47:56.882Z,99100.10
2023-01-05T21:50:44.259Z,99107.02
2023-01-05T21:53:35.808Z,99112.13
2023-01-05T21:56:25.967Z,99120.48
2023-01-05T21:58:55.978Z,99125.25
2023-01-05T22:01:26.550Z,99129.02
2023-01-05T22:03:56.895Z,99129.11
2023-01-05T22:06:25.360Z,99125.67
2023-01-05T22:08:53.636Z,99135.44
2023-01-05T22:11:21.930Z,99137.66
2023-01-05T22:13:50.603Z,99135.64
2023-01-05T22:16:19.049Z,99140.66
2023-01-05T22:18:47.898Z,99142.86
2023-01-05T22:21:17.014Z,99146.90
2023-01-05T22:23:45.527Z,99152.45
2023-01-05T22:26:16.820Z,99158.45
2023-01-05T22:28:47.123Z,99149.38
2023-01-05T22:31:18.652Z,99154.01
2023-01-05T22:33:49.293Z,99160.45
2023-01-05T22:36:19.801Z,99159.95
2023-01-05T22:38:49.732Z,99168.77
2023-01-05T22:41:21.986Z,99175.92
2023-01-05T22:43:50.851Z,99183.08
2023-01-05T22:46:23.584Z,99189.86
2023-01-05T22:48:53.942Z,99194.61
2023-01-05T22:51:48.369Z,99201.11
2023-01-05T22:54:16.808Z,99199.54
2023-01-05T22:56:45.079Z,99204.99
2023-01-05T22:59:13.458Z,99212.94
2023-01-05T23:01:45.291Z,99219.56
2023-01-05T23:04:14.839Z,99222.54
2023-01-05T23:06:43.634Z,99228.30
2023-01-05T23:09:15.094Z,99227.39
2023-01-05T23:11:46.332Z,99229.30
2023-01-05T23:14:18.536Z,99236.13
2023-01-05T23:16:47.338Z,99238.66
2023-01-05T23:19:17.108Z,99240.98
2023-01-05T23:21:45.621Z,99242.22
2023-01-05T23:24:14.029Z,99246.56
2023-01-05T23:26:42.498Z,99248.02
2023-01-05T23:29:10.841Z,99254.39
2023-01-05T23:31:39.191Z,99255.22
2023-01-05T23:34:07.448Z,99256.98
2023-01-05T23:36:35.715Z,99260.17
2023-01-05T23:39:04.070Z,99266.14
2023-01-05T23:41:32.348Z,99265.95
2023-01-05T23:44:00.748Z,99272.19
2023-01-05T23:46:29.202Z,99275.91
2023-01-05T23:48:57.644Z,99272.94
2023-01-05T23:51:25.956Z,99272.88
2023-01-05T23:53:54.266Z,99277.41
2023-01-05T23:56:25.142Z,99285.66
2023-01-05T23:59:05.188Z,99286.40
